Time;durP1;ratioP1;P1;durP2;ratioP2;P2;SDS_P1;SDS_P2;PMS_P1;PMS_P2;Temp;Humidity;BMP_temperature;BMP_pressure;BME280_temperature;BME280_humidity;BME280_pressure;Samples;Min_cycle;Max_cycle;Signal;HPM_P1;HPM_P2
2022/05/03 00:01:13;;;;;;;4.30;4.10;;;;;;;14.63;74.08;99336.72;5093706;28;20237;-75
2022/05/03 00:03:45;;;;;;;5.60;4.30;;;;;;;14.62;74.51;99342.31;5094430;28;20192;-75
2022/05/03 00:06:19;;;;;;;5.23;4.73;;;;;;;14.61;74.73;99341.50;5094516;28;20186;-75
2022/05/03 00:08:53;;;;;;;4.83;4.53;;;;;;;14.64;74.61;99335.69;5094083;28;20240;-75
2022/05/03 00:11:29;;;;;;;4.73;4.20;;;;;;;14.67;75.55;99335.22;5093547;28;20194;-75
2022/05/03 00:14:10;;;;;;;5.37;4.87;;;;;;;14.72;75.89;99338.06;5094065;28;20222;-75
2022/05/03 00:16:39;;;;;;;4.73;4.43;;;;;;;14.74;75.76;99345.81;5093639;28;20191;-74
2022/05/03 00:19:06;;;;;;;7.00;4.90;;;;;;;14.69;76.48;99335.81;5093610;28;20199;-75
2022/05/03 00:21:35;;;;;;;7.07;4.33;;;;;;;14.71;76.33;99335.59;5093282;28;20729;-75
2022/05/03 00:24:02;;;;;;;5.00;4.70;;;;;;;14.66;76.83;99333.59;5092962;28;20666;-74
2022/05/03 00:26:29;;;;;;;4.93;4.43;;;;;;;14.64;77.73;99334.88;5093301;28;20252;-73
2022/05/03 00:28:59;;;;;;;5.07;4.77;;;;;;;14.63;77.66;99331.38;5094020;28;20248;-73
2022/05/03 00:31:27;;;;;;;5.37;4.97;;;;;;;14.62;77.93;99332.41;5093176;28;20195;-73
2022/05/03 00:33:55;;;;;;;5.53;5.03;;;;;;;14.44;78.03;99329.78;5093902;28;20636;-73
2022/05/03 00:36:22;;;;;;;5.70;5.10;;;;;;;14.39;78.45;99332.31;5092841;28;20195;-73
2022/05/03 00:38:49;;;;;;;5.73;5.33;;;;;;;14.10;81.13;99330.34;5092963;28;20192;-73
2022/05/03 00:41:21;;;;;;;8.10;5.37;;;;;;;14.11;81.61;99329.31;5093006;28;20278;-73
2022/05/03 00:43:54;;;;;;;7.67;5.87;;;;;;;13.96;82.05;99338.72;5092682;28;20696;-73
2022/05/03 00:46:28;;;;;;;5.93;5.57;;;;;;;13.84;82.96;99338.63;5092691;28;20183;-73
2022/05/03 00:49:14;;;;;;;6.10;5.63;;;;;;;13.58;84.22;99333.56;5093660;28;20214;-74
2022/05/03 00:51:46;;;;;;;6.47;5.87;;;;;;;13.63;84.15;99331.03;5092911;28;20227;-74
2022/05/03 00:54:19;;;;;;;6.30;5.80;;;;;;;13.64;84.45;99322.00;5092479;28;20213;-74
2022/05/03 00:57:03;;;;;;;6.67;5.97;;;;;;;13.71;84.23;99328.09;5092501;28;20198;-74
2022/05/03 00:59:46;;;;;;;7.07;6.47;;;;;;;13.70;84.20;99328.31;5093020;28;20191;-73
2022/05/03 01:02:15;;;;;;;7.37;5.90;;;;;;;13.70;84.54;99326.47;5092158;28;20643;-73
2022/05/03 01:04:51;;;;;;;6.33;5.83;;;;;;;13.72;84.88;99324.38;5092903;28;20199;-73
2022/05/03 01:07:28;;;;;;;6.97;6.23;;;;;;;13.75;84.39;99321.28;5092968;28;20240;-75
2022/05/03 01:10:03;;;;;;;6.47;6.07;;;;;;;13.73;85.08;99320.66;5092592;28;20218;-75
2022/05/03 01:12:48;;;;;;;6.70;6.20;;;;;;;13.81;84.94;99317.72;5092140;28;20213;-75
2022/05/03 01:15:19;;;;;;;9.30;6.93;;;;;;;13.76;84.32;99320.22;5093020;28;20616;-75
2022/05/03 01:17:55;;;;;;;6.40;6.10;;;;;;;13.73;84.57;99315.31;5093095;28;20575;-75
2022/05/03 01:20:30;;;;;;;7.43;6.87;;;;;;;13.55;85.30;99320.66;5092247;28;20178;-75
2022/05/03 01:23:22;;;;;;;7.20;6.70;;;;;;;13.63;85.86;99314.19;5092405;28;20658;-75
2022/05/03 01:26:24;;;;;;;7.10;6.60;;;;;;;13.69;85.28;99313.34;5092748;28;20183;-73
2022/05/03 01:29:16;;;;;;;6.90;6.40;;;;;;;13.74;85.09;99314.31;5092069;28;20183;-72
2022/05/03 01:31:43;;;;;;;6.93;6.33;;;;;;;13.82;85.18;99319.38;5093341;28;20260;-74
2022/05/03 01:34:12;;;;;;;8.27;7.50;;;;;;;13.87;84.66;99316.03;5091933;28;20570;-75
2022/05/03 01:36:50;;;;;;;7.40;6.90;;;;;;;13.95;84.99;99324.56;5092340;28;20187;-72
2022/05/03 01:39:30;;;;;;;9.17;6.47;;;;;;;13.90;84.36;99321.75;5092580;28;20187;-73
2022/05/03 01:42:01;;;;;;;7.30;6.50;;;;;;;13.96;84.42;99312.84;5092593;28;20183;-73
2022/05/03 01:44:39;;;;;;;7.60;6.90;;;;;;;14.03;84.12;99315.44;5092545;28;20617;-72
2022/05/03 01:47:17;;;;;;;7.33;6.73;;;;;;;13.89;85.19;99314.75;5091934;28;20179;-72
2022/05/03 01:53:03;;;;;;;7.40;6.73;;;;;;;13.83;85.86;99315.66;5092649;28;20546;-74
2022/05/03 01:56:06;;;;;;;7.00;6.40;;;;;;;13.70;85.45;99314.97;5091810;28;20694;-72
2022/05/03 01:58:41;;;;;;;8.20;6.50;;;;;;;13.51;86.10;99311.44;5073335;28;20195;-72
2022/05/03 02:01:38;;;;;;;9.30;6.60;;;;;;;13.62;86.08;99320.59;5092020;28;20222;-73
2022/05/03 02:04:17;;;;;;;6.70;6.20;;;;;;;13.68;85.89;99325.06;5092286;28;20195;-73
2022/05/03 02:06:51;;;;;;;7.43;6.23;;;;;;;13.66;85.66;99319.94;5092545;28;20187;-72
2022/05/03 02:09:26;;;;;;;7.33;6.67;;;;;;;13.73;85.66;99331.34;5092871;28;20184;-74
2022/05/03 02:12:06;;;;;;;7.40;6.80;;;;;;;13.71;86.01;99328.09;5091760;28;20240;-74
2022/05/03 02:14:46;;;;;;;7.13;6.47;;;;;;;13.75;86.55;99326.63;5096377;28;20727;-74
2022/05/03 02:17:30;;;;;;;7.73;6.47;;;;;;;13.66;86.15;99325.28;5095533;28;20183;-73
2022/05/03 02:20:09;;;;;;;6.60;6.10;;;;;;;13.61;86.27;99319.78;5095525;28;20187;-73
2022/05/03 02:23:15;;;;;;;7.07;6.37;;;;;;;13.49;86.40;99326.88;5096840;28;20226;-74
2022/05/03 02:25:57;;;;;;;6.90;6.20;;;;;;;13.61;87.18;99327.78;5072484;28;20618;-74
2022/05/03 02:28:36;;;;;;;7.47;6.87;;;;;;;13.68;86.43;99333.88;5095332;28;20188;-73
2022/05/03 02:31:04;;;;;;;7.67;6.97;;;;;;;13.77;87.95;99337.09;5095250;28;20660;-74
2022/05/03 02:33:38;;;;;;;8.10;7.23;;;;;;;13.80;88.73;99329.44;5095071;28;20670;-73
2022/05/03 02:36:13;;;;;;;7.83;7.17;;;;;;;13.74;89.32;99327.66;5096321;28;20236;-73
2022/05/03 02:38:59;;;;;;;8.20;7.37;;;;;;;13.80;89.28;99337.44;5095100;28;20183;-72
2022/05/03 02:41:28;;;;;;;6.83;5.87;;;;;;;13.83;88.31;99339.69;5095366;28;20188;-72
2022/05/03 02:43:57;;;;;;;7.07;6.47;;;;;;;13.87;87.59;99342.72;5095199;28;20202;-73
2022/05/03 02:46:49;;;;;;;7.77;7.07;;;;;;;13.93;86.28;99342.66;5094924;28;20195;-72
2022/05/03 02:49:20;;;;;;;6.93;6.37;;;;;;;13.99;86.68;99341.78;5095481;28;20286;-72
2022/05/03 02:51:53;;;;;;;6.23;5.77;;;;;;;14.01;86.63;99344.22;5096401;28;20525;-73
2022/05/03 02:54:30;;;;;;;6.23;5.83;;;;;;;14.04;85.80;99349.94;5094853;28;20712;-74
2022/05/03 02:57:07;;;;;;;6.83;6.23;;;;;;;14.07;85.94;99349.50;5094796;28;20647;-75
2022/05/03 03:02:36;;;;;;;7.00;6.50;;;;;;;13.94;86.38;99357.66;5094772;28;20566;-74
2022/05/03 03:05:08;;;;;;;8.23;7.50;;;;;;;13.96;85.41;99360.91;5095219;28;20187;-74
2022/05/03 03:07:44;;;;;;;6.50;6.00;;;;;;;13.99;85.59;99363.16;5094845;28;20647;-73
2022/05/03 03:10:16;;;;;;;7.93;7.23;;;;;;;14.04;85.72;99367.81;5094553;28;20243;-72
2022/05/03 03:12:48;;;;;;;8.90;7.73;;;;;;;14.00;85.57;99364.78;5094397;28;20271;-73
2022/05/03 03:15:17;;;;;;;8.00;6.90;;;;;;;13.94;86.43;99371.00;5094613;28;20258;-74
2022/05/03 03:17:50;;;;;;;8.07;7.13;;;;;;;13.92;86.47;99378.41;5094661;28;20188;-74
2022/05/03 03:20:19;;;;;;;7.87;7.17;;;;;;;13.92;87.94;99374.91;5094898;28;20188;-73
2022/05/03 03:22:47;;;;;;;19.33;15.53;;;;;;;13.97;87.64;99383.91;5094445;28;20187;-73
2022/05/03 03:25:15;;;;;;;8.73;7.53;;;;;;;13.87;86.45;99375.59;5094084;28;20199;-72
2022/05/03 03:27:44;;;;;;;8.50;7.83;;;;;;;13.85;86.75;99388.31;5094065;28;20191;-72
2022/05/03 03:30:13;;;;;;;17.87;15.00;;;;;;;13.82;87.35;99388.78;5094355;28;20195;-74
2022/05/03 03:32:42;;;;;;;11.77;10.57;;;;;;;13.83;87.71;99393.09;5094318;28;20248;-75
2022/05/03 03:35:09;;;;;;;14.63;11.83;;;;;;;13.73;87.59;99400.75;5094359;28;20223;-75
2022/05/03 03:37:38;;;;;;;8.47;7.10;;;;;;;13.77;87.66;99395.81;5093867;28;20240;-73
2022/05/03 03:40:07;;;;;;;7.97;7.40;;;;;;;13.81;87.66;99397.81;5094167;28;20191;-73
2022/05/03 03:42:35;;;;;;;8.37;7.57;;;;;;;13.86;87.42;99394.50;5093751;28;20301;-73
2022/05/03 03:45:07;;;;;;;7.63;7.13;;;;;;;13.91;87.40;99390.13;5094058;28;20225;-74
2022/05/03 03:47:34;;;;;;;8.53;7.63;;;;;;;13.94;87.71;99389.69;5094647;28;20266;-74
2022/05/03 03:50:00;;;;;;;8.73;8.00;;;;;;;13.95;87.42;99401.19;5094548;28;20264;-74
2022/05/03 03:52:28;;;;;;;8.33;7.63;;;;;;;13.99;87.57;99403.22;5093687;28;20191;-74
2022/05/03 03:54:57;;;;;;;8.60;8.00;;;;;;;13.84;87.39;99402.72;5094613;28;20276;-74
2022/05/03 03:57:25;;;;;;;8.37;7.70;;;;;;;13.84;88.00;99408.06;5093833;28;20187;-74
2022/05/03 03:59:52;;;;;;;7.97;7.37;;;;;;;13.80;88.44;99416.75;5093480;28;20192;-74
2022/05/03 04:02:19;;;;;;;7.87;7.37;;;;;;;13.76;88.56;99416.34;5093438;28;20264;-75
2022/05/03 04:04:47;;;;;;;7.93;7.33;;;;;;;13.82;89.13;99425.34;5093998;28;20191;-75
2022/05/03 04:07:14;;;;;;;8.37;7.63;;;;;;;13.86;88.89;99424.69;5093385;28;20221;-74
2022/05/03 04:09:41;;;;;;;7.83;7.17;;;;;;;13.87;88.38;99428.16;5093876;28;20187;-75
2022/05/03 04:12:09;;;;;;;7.63;6.70;;;;;;;13.87;88.05;99423.66;5094344;28;20199;-74
2022/05/03 04:14:36;;;;;;;7.50;6.93;;;;;;;13.85;86.69;99423.03;5094630;28;20291;-74
2022/05/03 04:17:03;;;;;;;7.73;7.13;;;;;;;13.84;86.93;99424.06;5093097;28;20195;-74
2022/05/03 04:19:30;;;;;;;7.13;6.53;;;;;;;13.84;85.71;99423.28;5093397;28;20251;-75
2022/05/03 04:22:12;;;;;;;7.47;6.97;;;;;;;13.80;87.41;99422.88;5093409;28;20216;-75
2022/05/03 04:24:39;;;;;;;7.40;6.90;;;;;;;13.80;88.54;99422.09;5092692;28;20282;-75
2022/05/03 04:27:06;;;;;;;8.37;7.53;;;;;;;13.76;89.61;99416.34;5092709;28;20234;-74
2022/05/03 04:29:34;;;;;;;7.77;7.17;;;;;;;13.72;90.35;99425.81;5092434;28;20217;-74
2022/05/03 04:32:00;;;;;;;9.13;8.43;;;;;;;13.71;91.08;99424.19;5092721;28;20714;-73
2022/05/03 04:34:28;;;;;;;11.53;8.47;;;;;;;13.69;91.17;99425.44;5093183;28;20280;-74
2022/05/03 04:36:54;;;;;;;8.10;7.60;;;;;;;13.65;90.65;99425.06;5092029;28;20642;-74
2022/05/03 04:39:21;;;;;;;7.93;7.33;;;;;;;13.62;90.15;99427.34;5093234;28;20197;-75
2022/05/03 04:41:48;;;;;;;7.80;7.13;;;;;;;13.62;91.58;99430.84;5092776;28;20195;-77
2022/05/03 04:44:14;;;;;;;9.23;8.50;;;;;;;13.63;92.28;99437.81;5093717;28;20339;-74
2022/05/03 04:46:42;;;;;;;8.43;7.90;;;;;;;13.63;93.20;99443.16;5093036;28;20253;-75
2022/05/03 04:49:09;;;;;;;8.90;8.03;;;;;;;13.63;92.20;99442.31;5092033;28;20191;-72
2022/05/03 04:51:36;;;;;;;8.57;7.93;;;;;;;13.63;93.34;99443.16;5092079;28;20705;-72
2022/05/03 04:54:03;;;;;;;8.33;7.67;;;;;;;13.66;93.71;99447.22;5091262;28;20614;-72
2022/05/03 04:56:29;;;;;;;9.97;8.57;;;;;;;13.67;93.50;99444.34;5092311;28;20695;-72
2022/05/03 04:58:56;;;;;;;12.33;8.83;;;;;;;13.71;93.35;99445.53;5092542;28;20726;-72
2022/05/03 05:01:24;;;;;;;6.83;6.17;;;;;;;13.74;92.44;99445.13;5092326;28;20655;-72
2022/05/03 05:03:52;;;;;;;6.30;5.90;;;;;;;13.71;90.94;99455.41;5092462;28;20576;-72
2022/05/03 05:06:19;;;;;;;5.70;5.23;;;;;;;13.70;90.21;99453.75;5092817;28;20253;-72
2022/05/03 05:08:46;;;;;;;5.70;5.20;;;;;;;13.73;89.85;99453.34;5092543;28;20278;-71
2022/05/03 05:11:13;;;;;;;6.93;5.80;;;;;;;13.71;88.91;99461.56;5093522;28;20195;-70
2022/05/03 05:13:41;;;;;;;8.33;6.60;;;;;;;13.69;89.59;99455.59;5092731;28;20284;-71
2022/05/03 05:16:09;;;;;;;6.83;6.23;;;;;;;13.71;90.68;99456.22;5092384;28;20230;-72
2022/05/03 05:18:35;;;;;;;6.50;5.97;;;;;;;13.73;89.69;99458.69;5093025;28;20285;-72
2022/05/03 05:21:04;;;;;;;6.80;5.90;;;;;;;13.74;88.84;99461.13;5091925;28;20191;-72
2022/05/03 05:23:30;;;;;;;7.23;6.63;;;;;;;13.70;89.62;99465.28;5092290;28;20655;-72
2022/05/03 05:25:57;;;;;;;6.23;5.10;;;;;;;13.68;89.87;99466.53;5092068;28;20727;-75
2022/05/03 05:28:24;;;;;;;6.90;6.30;;;;;;;13.65;90.58;99462.44;5092027;28;20256;-72
2022/05/03 05:30:52;;;;;;;7.27;6.77;;;;;;;13.62;90.48;99468.22;5090615;28;20264;-70
2022/05/03 05:33:20;;;;;;;10.07;8.00;;;;;;;13.65;91.64;99470.44;5085004;28;20270;-71
2022/05/03 05:35:47;;;;;;;7.60;7.00;;;;;;;13.65;91.45;99465.13;5090838;28;20633;-69
2022/05/03 05:38:17;;;;;;;9.67;8.80;;;;;;;14.02;94.18;99474.88;5092016;28;20248;-71
2022/05/03 05:40:44;;;;;;;8.47;6.70;;;;;;;14.08;89.71;99474.00;5091548;28;20226;-71
2022/05/03 05:43:11;;;;;;;7.23;6.53;;;;;;;13.99;89.20;99475.31;5090623;28;20191;-70
2022/05/03 05:45:38;;;;;;;8.90;8.00;;;;;;;13.85;89.55;99472.97;5090372;28;20200;-71
2022/05/03 05:48:05;;;;;;;8.47;7.67;;;;;;;13.74;88.33;99479.81;5095016;28;20202;-70
2022/05/03 05:50:32;;;;;;;7.07;6.57;;;;;;;13.66;88.36;99474.75;5095889;28;20248;-70
2022/05/03 05:55:44;;;;;;;7.17;6.67;;;;;;;13.39;88.72;99480.47;5093712;28;20202;-70
2022/05/03 05:58:11;;;;;;;7.13;6.50;;;;;;;13.34;90.05;99481.09;5093595;28;20778;-70
2022/05/03 06:00:38;;;;;;;5.70;5.10;;;;;;;13.31;89.79;99481.53;5093304;28;20256;-70
2022/05/03 06:03:06;;;;;;;5.57;5.27;;;;;;;13.36;89.06;99484.38;5093983;28;20195;-69
2022/05/03 06:05:33;;;;;;;7.07;5.50;;;;;;;13.41;89.60;99484.56;5094025;28;20195;-69
2022/05/03 06:08:00;;;;;;;7.20;6.70;;;;;;;13.44;89.71;99492.13;5093965;28;20191;-70
2022/05/03 06:10:28;;;;;;;6.80;6.03;;;;;;;13.29;88.64;99488.94;5095157;28;20662;-69
2022/05/03 06:12:56;;;;;;;6.60;6.03;;;;;;;13.28;89.65;99492.59;5095736;28;20229;-69
2022/05/03 06:15:23;;;;;;;5.60;5.30;;;;;;;13.08;88.73;99497.25;5096636;28;20215;-69
2022/05/03 06:17:50;;;;;;;5.80;5.50;;;;;;;12.94;88.62;99500.94;5095304;28;20554;-69
2022/05/03 06:20:16;;;;;;;6.03;5.50;;;;;;;12.96;89.61;99495.41;5096375;28;20195;-69
2022/05/03 06:22:43;;;;;;;6.67;6.13;;;;;;;12.90;89.36;99494.41;5095513;28;20248;-69
2022/05/03 06:25:10;;;;;;;6.77;6.23;;;;;;;12.76;89.90;99503.47;5095628;28;20195;-69
2022/05/03 06:27:38;;;;;;;7.00;6.50;;;;;;;12.70;92.05;99498.97;5095143;28;20249;-69
2022/05/03 06:30:08;;;;;;;5.37;5.07;;;;;;;12.67;89.60;99501.25;5095815;28;20192;-69
2022/05/03 06:32:35;;;;;;;5.30;5.00;;;;;;;12.65;90.07;99501.44;5095024;28;20180;-69
2022/05/03 06:35:02;;;;;;;5.87;5.47;;;;;;;12.65;90.17;99501.44;5095597;28;20245;-69
2022/05/03 06:37:29;;;;;;;5.20;4.90;;;;;;;12.62;90.30;99503.72;5095336;28;20255;-69
2022/05/03 06:39:55;;;;;;;6.40;5.90;;;;;;;12.63;90.57;99508.84;5094929;28;20217;-69
2022/05/03 06:42:22;;;;;;;6.27;5.83;;;;;;;12.57;91.43;99512.34;5095146;28;20198;-69
2022/05/03 06:44:49;;;;;;;4.90;4.60;;;;;;;12.46;91.82;99507.63;5095043;28;20195;-68
2022/05/03 06:47:18;;;;;;;5.30;4.90;;;;;;;12.33;92.89;99505.00;5095169;28;20294;-68
2022/05/03 06:49:45;;;;;;;8.30;5.47;;;;;;;12.39;91.58;99516.66;5095105;28;20195;-69
2022/05/03 06:52:12;;;;;;;5.87;5.33;;;;;;;12.41;91.27;99518.09;5095077;28;20240;-69
2022/05/03 06:54:38;;;;;;;5.00;4.70;;;;;;;12.28;92.22;99515.44;5092320;28;20256;-68
2022/05/03 06:57:05;;;;;;;5.07;4.70;;;;;;;12.26;93.41;99525.50;5092019;28;20194;-70
2022/05/03 06:59:32;;;;;;;5.77;5.47;;;;;;;12.31;94.77;99524.88;5093372;28;20191;-69
2022/05/03 07:01:59;;;;;;;6.72;6.15;;;;;;;12.70;97.75;99520.28;5092320;28;20464;-71
2022/05/03 07:04:27;;;;;;;5.87;5.43;;;;;;;12.81;94.64;99518.81;5078877;28;20191;-69
2022/05/03 07:06:53;;;;;;;6.13;5.53;;;;;;;12.68;94.65;99527.69;5074181;28;20258;-72
2022/05/03 07:09:20;;;;;;;5.50;5.00;;;;;;;12.65;93.11;99520.09;5073733;28;20253;-72
2022/05/03 07:11:47;;;;;;;7.43;6.83;;;;;;;12.69;94.33;99524.00;5074431;28;20192;-72
2022/05/03 07:14:15;;;;;;;5.83;5.43;;;;;;;12.71;93.55;99521.13;5093434;28;20245;-72
2022/05/03 07:16:42;;;;;;;6.57;5.63;;;;;;;12.80;94.87;99518.03;5092739;28;20218;-72
2022/05/03 07:24:38;;;;;;;4.67;4.27;;;;;;;12.58;95.35;99519.28;5073356;28;20179;-70
2022/05/03 07:27:05;;;;;;;4.30;4.00;;;;;;;12.41;96.02;99519.97;5073262;28;20192;-74
2022/05/03 07:29:32;;;;;;;4.60;4.40;;;;;;;12.29;96.80;99527.72;5080885;28;20200;-74
2022/05/03 07:32:03;;;;;;;5.07;4.57;;;;;;;12.39;97.13;99511.34;5090736;28;20260;-74
2022/05/03 07:34:30;;;;;;;4.20;3.80;;;;;;;12.45;95.98;99526.50;5090422;28;20188;-72
2022/05/03 07:36:58;;;;;;;3.83;3.60;;;;;;;12.35;94.32;99526.09;5079658;28;20278;-72
2022/05/03 07:39:25;;;;;;;4.40;4.00;;;;;;;12.41;95.08;99525.28;5071428;28;20190;-74
2022/05/03 07:41:53;;;;;;;4.37;3.93;;;;;;;12.42;94.66;99526.91;5090411;28;20194;-73
2022/05/03 07:44:20;;;;;;;4.23;3.80;;;;;;;12.47;92.45;99535.94;5092868;28;20232;-74
2022/05/03 07:46:47;;;;;;;4.23;3.77;;;;;;;12.42;91.55;99522.38;5092518;28;20739;-78
2022/05/03 07:49:13;;;;;;;6.43;5.10;;;;;;;12.37;93.98;99530.19;5093804;28;20192;-79
2022/05/03 07:51:41;;;;;;;6.00;5.20;;;;;;;12.44;96.56;99525.69;5092091;28;20225;-72
2022/05/03 07:54:09;;;;;;;9.50;5.23;;;;;;;13.32;100.00;99520.50;5092463;28;20196;-71
2022/05/03 07:56:36;;;;;;;3.50;3.20;;;;;;;13.52;88.83;99523.09;5091411;28;20225;-70
2022/05/03 07:59:06;;;;;;;3.80;3.50;;;;;;;13.62;89.75;99516.25;5092003;28;20191;-71
2022/05/03 08:01:33;;;;;;;5.40;4.40;;;;;;;13.72;90.09;99511.25;5092439;28;20627;-69
2022/05/03 08:04:00;;;;;;;4.00;3.80;;;;;;;13.79;89.83;99511.19;5082319;28;20199;-72
2022/05/03 08:06:27;;;;;;;4.17;3.97;;;;;;;13.75;88.88;99516.16;5093171;28;20253;-73
2022/05/03 08:08:56;;;;;;;4.00;3.80;;;;;;;13.66;89.29;99516.63;5093098;28;20196;-75
2022/05/03 08:11:24;;;;;;;4.70;4.30;;;;;;;13.86;90.65;99526.16;5091591;28;20191;-73
2022/05/03 08:13:52;;;;;;;3.80;3.50;;;;;;;13.85;88.65;99519.16;5091919;28;20227;-74
2022/05/03 08:16:21;;;;;;;3.63;3.43;;;;;;;13.86;88.00;99517.31;5091562;28;20226;-73
2022/05/03 08:18:48;;;;;;;4.60;4.20;;;;;;;13.99;89.38;99518.03;5091670;28;20256;-72
2022/05/03 08:21:14;;;;;;;3.23;3.03;;;;;;;14.06;87.54;99513.47;5092854;28;20233;-73
2022/05/03 08:23:41;;;;;;;3.83;3.43;;;;;;;14.57;88.24;99518.56;5091400;28;20256;-73
2022/05/03 08:26:09;;;;;;;4.20;3.80;;;;;;;14.72;85.75;99519.88;5093119;28;20195;-71
2022/05/03 08:28:37;;;;;;;3.97;3.67;;;;;;;14.71;83.45;99528.91;5092411;28;20191;-72
2022/05/03 08:31:04;;;;;;;4.30;3.50;;;;;;;14.42;82.92;99534.16;5091995;28;20903;-72
2022/05/03 08:33:33;;;;;;;3.43;3.23;;;;;;;14.35;85.08;99531.56;5091879;28;20202;-70
2022/05/03 08:35:59;;;;;;;3.13;3.03;;;;;;;14.43;83.86;99539.28;5091033;28;20219;-70
2022/05/03 08:43:58;;;;;;;5.63;3.33;;;;;;;14.45;83.76;99550.56;5092753;28;20558;-69
2022/05/03 08:46:25;;;;;;;3.63;3.33;;;;;;;14.49;84.22;99541.06;5092417;28;20203;-69
2022/05/03 08:48:57;;;;;;;9.37;7.23;;;;;;;14.55;80.57;99558.88;5092127;28;20264;-69
2022/05/03 08:51:24;;;;;;;6.00;5.50;;;;;;;14.38;80.88;99560.47;5092547;28;20172;-70
2022/05/03 08:53:52;;;;;;;11.63;10.43;;;;;;;14.39;81.27;99548.78;5091874;28;20191;-69
2022/05/03 08:56:20;;;;;;;6.87;6.03;;;;;;;14.41;82.11;99549.38;5090385;28;20779;-72
2022/05/03 08:58:47;;;;;;;48.00;28.87;;;;;;;14.41;81.95;99549.38;5091765;28;20192;-71
2022/05/03 09:01:15;;;;;;;23.77;16.13;;;;;;;14.35;82.58;99554.78;5089746;28;20257;-72
2022/05/03 09:03:42;;;;;;;17.97;13.90;;;;;;;14.38;83.45;99549.78;5083946;28;20628;-72
2022/05/03 09:06:09;;;;;;;9.57;7.87;;;;;;;14.45;82.71;99550.56;5092130;28;20272;-72
2022/05/03 09:08:37;;;;;;;5.23;4.83;;;;;;;14.51;82.87;99554.22;5091883;28;20222;-71
2022/05/03 09:11:14;;;;;;;39.20;22.60;;;;;;;14.56;82.32;99557.88;5091593;28;20206;-72
2022/05/03 09:13:42;;;;;;;5.03;4.63;;;;;;;14.54;80.90;99551.91;5092403;28;20226;-73
2022/05/03 09:16:13;;;;;;;4.00;3.67;;;;;;;14.61;80.98;99555.34;5089949;28;20226;-73
2022/05/03 09:18:42;;;;;;;3.30;3.10;;;;;;;14.76;81.51;99550.47;5090254;28;20192;-72
2022/05/03 09:24:06;;;;;;;5.90;2.93;;;;;;;14.83;80.78;99553.88;5089801;28;20565;-74
2022/05/03 09:26:33;;;;;;;2.60;2.50;;;;;;;14.92;79.34;99552.56;5090383;28;20226;-71
2022/05/03 09:29:02;;;;;;;3.17;2.87;;;;;;;15.01;80.40;99551.25;5091269;28;20658;-71
2022/05/03 09:31:30;;;;;;;2.77;2.67;;;;;;;15.06;79.24;99543.34;5090289;28;20586;-71
2022/05/03 09:34:00;;;;;;;2.70;2.60;;;;;;;15.18;78.66;99557.63;5091385;28;20191;-72
2022/05/03 09:36:27;;;;;;;2.30;2.20;;;;;;;15.32;78.66;99548.38;5091711;28;20219;-71
2022/05/03 09:38:57;;;;;;;2.80;2.60;;;;;;;15.46;77.57;99549.91;5090951;28;20203;-71
2022/05/03 09:41:24;;;;;;;3.17;3.00;;;;;;;15.57;76.41;99551.00;5090103;28;20722;-72
2022/05/03 09:44:09;;;;;;;2.90;2.70;;;;;;;15.64;75.70;99552.53;5089684;28;20198;-72
2022/05/03 09:46:51;;;;;;;2.40;2.30;;;;;;;15.69;75.66;99549.97;5089002;28;20677;-73
2022/05/03 09:49:21;;;;;;;2.70;2.57;;;;;;;15.78;74.44;99554.00;5090744;28;20270;-73
2022/05/03 09:51:48;;;;;;;2.57;2.47;;;;;;;15.71;74.18;99557.78;5090946;28;20228;-73
2022/05/03 09:54:16;;;;;;;13.83;8.30;;;;;;;15.71;72.60;99558.63;5091320;28;20191;-74
2022/05/03 09:56:47;;;;;;;109.80;36.50;;;;;;;15.59;71.55;99570.31;5091332;28;20230;-73
2022/05/03 09:59:14;;;;;;;32.50;15.77;;;;;;;15.54;71.43;99562.97;5091602;28;20260;-71
2022/05/03 10:01:42;;;;;;;10.53;8.10;;;;;;;15.45;70.99;99566.97;5090679;28;20202;-73
2022/05/03 10:04:09;;;;;;;31.07;15.83;;;;;;;15.45;75.63;99558.94;5084040;28;20199;-74
2022/05/03 10:06:37;;;;;;;15.80;8.53;;;;;;;16.02;90.69;99552.19;5091515;28;20195;-73
2022/05/03 10:09:05;;;;;;;3.70;3.50;;;;;;;16.67;76.96;99561.03;5091720;28;20195;-74
2022/05/03 10:11:34;;;;;;;4.77;4.37;;;;;;;17.22;76.22;99562.25;5091129;28;20623;-74
2022/05/03 10:14:00;;;;;;;8.23;3.63;;;;;;;17.41;68.45;99579.88;5091878;28;20238;-75
2022/05/03 10:22:05;;;;;;;4.57;4.27;;;;;;;16.93;65.55;99574.78;5091056;28;20692;-70
2022/05/03 10:24:33;;;;;;;4.60;3.23;;;;;;;16.68;65.17;99571.53;5090915;28;20192;-71
2022/05/03 10:27:05;;;;;;;2.60;2.50;;;;;;;16.58;67.93;99563.25;5090805;28;20198;-70
2022/05/03 10:29:34;;;;;;;3.87;2.93;;;;;;;16.48;67.98;99564.88;5091323;28;20210;-71
2022/05/03 10:32:03;;;;;;;2.83;2.30;;;;;;;16.41;68.12;99561.50;5089116;28;20195;-71
2022/05/03 10:34:53;;;;;;;3.30;3.10;;;;;;;16.43;68.45;99556.72;5091823;28;20276;-72
2022/05/03 10:38:04;;;;;;;3.27;2.90;;;;;;;16.44;70.18;99552.97;5093414;28;20215;-71
2022/05/03 10:40:34;;;;;;;3.23;3.03;;;;;;;16.56;69.77;99556.47;5093839;28;20195;-72
2022/05/03 10:43:06;;;;;;;4.20;3.90;;;;;;;16.48;66.77;99557.66;5093945;28;20280;-72
2022/05/03 10:45:40;;;;;;;3.03;2.80;;;;;;;16.41;67.23;99553.47;5093851;28;20198;-73
2022/05/03 10:48:23;;;;;;;4.07;2.50;;;;;;;16.57;67.42;99553.56;5094087;28;20189;-70
2022/05/03 10:50:52;;;;;;;3.40;3.00;;;;;;;16.75;67.02;99549.97;5094215;28;20187;-69
2022/05/03 10:53:24;;;;;;;3.60;3.30;;;;;;;16.71;69.10;99548.78;5094164;28;20546;-70
2022/05/03 10:56:24;;;;;;;2.50;2.40;;;;;;;16.79;66.65;99556.50;5094449;28;20222;-71
2022/05/03 10:59:10;;;;;;;4.57;4.27;;;;;;;16.77;66.35;99554.03;5094393;28;20646;-73
2022/05/03 11:02:07;;;;;;;3.03;2.83;;;;;;;16.76;63.82;99559.63;5094383;28;20187;-72
2022/05/03 11:04:36;;;;;;;2.67;2.57;;;;;;;16.85;62.33;99566.28;5089348;28;20644;-72
2022/05/03 11:07:03;;;;;;;2.93;2.80;;;;;;;16.75;66.14;99544.59;5094294;28;20205;-72
2022/05/03 11:09:33;;;;;;;3.67;3.47;;;;;;;16.72;65.18;99545.88;5093854;28;20202;-71
2022/05/03 11:12:07;;;;;;;3.10;2.90;;;;;;;16.80;65.18;99542.84;5093626;28;20188;-71
2022/05/03 11:14:51;;;;;;;2.90;2.70;;;;;;;16.57;66.72;99531.31;5094183;28;20306;-73
2022/05/03 11:17:18;;;;;;;2.70;2.60;;;;;;;16.54;66.15;99534.47;5092848;28;20207;-72
2022/05/03 11:20:02;;;;;;;2.37;2.23;;;;;;;16.47;65.13;99533.75;5094326;28;20679;-70
2022/05/03 11:22:31;;;;;;;3.50;3.30;;;;;;;16.69;66.05;99529.41;5094446;28;20195;-70
2022/05/03 11:25:04;;;;;;;10.03;5.87;;;;;;;17.02;66.80;99530.44;5094699;28;20636;-73
2022/05/03 11:27:32;;;;;;;2.73;2.63;;;;;;;17.07;66.00;99527.06;5094331;28;20568;-75
2022/05/03 11:30:01;;;;;;;4.63;3.30;;;;;;;17.20;64.71;99532.16;5094300;28;20195;-72
2022/05/03 11:32:32;;;;;;;3.30;3.20;;;;;;;17.02;66.79;99492.06;5092729;28;20199;-73
2022/05/03 11:35:07;;;;;;;3.67;3.07;;;;;;;17.11;66.48;99496.00;5093497;28;20274;-74
2022/05/03 11:37:35;;;;;;;5.37;2.70;;;;;;;17.24;64.77;99512.66;5093803;28;20742;-73
2022/05/03 11:40:09;;;;;;;2.70;2.53;;;;;;;17.20;64.31;99521.41;5093206;28;20209;-71
2022/05/03 11:42:41;;;;;;;7.73;6.60;;;;;;;17.21;62.61;99517.66;5093245;28;20287;-73
2022/05/03 11:45:10;;;;;;;5.03;4.07;;;;;;;17.29;64.57;99514.63;5092398;28;20735;-75
2022/05/03 11:47:39;;;;;;;2.70;2.60;;;;;;;17.06;65.68;99509.31;5092562;28;20654;-73
2022/05/03 11:50:07;;;;;;;2.93;2.73;;;;;;;16.70;65.91;99504.25;5096986;28;20213;-74
2022/05/03 11:58:06;;;;;;;5.10;2.77;;;;;;;17.36;64.06;99509.94;5091947;28;20354;-70
2022/05/03 12:00:45;;;;;;;4.80;3.00;;;;;;;17.56;63.08;99510.34;5090284;28;20659;-71
2022/05/03 12:03:12;;;;;;;2.43;2.23;;;;;;;17.55;62.58;99508.69;5092241;28;20175;-74
2022/05/03 12:05:39;;;;;;;2.40;2.30;;;;;;;17.58;62.80;99501.00;5092514;28;20245;-73
2022/05/03 12:08:18;;;;;;;2.33;2.23;;;;;;;17.53;62.63;99502.75;5093391;28;20577;-73
2022/05/03 12:10:46;;;;;;;2.20;2.10;;;;;;;17.42;60.91;99514.34;5092439;28;20271;-73
2022/05/03 12:13:15;;;;;;;3.27;2.30;;;;;;;17.43;61.73;99508.75;5092648;28;20277;-73
2022/05/03 12:15:42;;;;;;;2.33;2.23;;;;;;;17.35;60.78;99511.00;5092890;28;20199;-73
2022/05/03 12:18:13;;;;;;;3.37;2.50;;;;;;;17.06;62.24;99507.44;5091882;28;20269;-72
2022/05/03 12:20:46;;;;;;;3.40;2.40;;;;;;;17.00;63.80;99499.53;5092824;28;20195;-71
2022/05/03 12:23:20;;;;;;;2.57;2.37;;;;;;;17.07;60.79;99510.94;5092074;28;20199;-73